createdAt,value
2023-04-14T00:01:52.900Z,5.90
2023-04-14T00:04:21.893Z,5.90
2023-04-14T00:06:51.366Z,5.90
2023-04-14T00:09:20.998Z,6.00
2023-04-14T00:11:50.708Z,5.90
2023-04-14T00:14:19.090Z,5.90
2023-04-14T00:16:47.272Z,6.00
2023-04-14T00:19:15.425Z,6.00
2023-04-14T00:21:43.855Z,6.00
2023-04-14T00:24:12.715Z,6.00
2023-04-14T00:26:42.574Z,6.10
2023-04-14T00:29:11.456Z,6.10
2023-04-14T00:31:40.472Z,6.10
2023-04-14T00:34:09.194Z,6.10
2023-04-14T00:36:37.511Z,6.00
2023-04-14T00:39:05.873Z,6.00
2023-04-14T00:41:34.273Z,6.00
2023-04-14T00:44:03.677Z,5.90
2023-04-14T00:46:32.294Z,5.90
2023-04-14T00:49:00.754Z,5.80
2023-04-14T00:51:29.040Z,5.70
2023-04-14T00:53:57.557Z,5.60
2023-04-14T00:56:26.675Z,5.70
2023-04-14T00:58:54.824Z,5.60
2023-04-14T01:01:24.850Z,5.50
2023-04-14T01:03:53.643Z,5.40
2023-04-14T01:06:22.129Z,5.30
2023-04-14T01:08:50.496Z,5.30
2023-04-14T01:11:27.328Z,5.20
2023-04-14T01:14:05.315Z,5.10
2023-04-14T01:16:37.082Z,5.20
2023-04-14T01:19:14.349Z,5.20
2023-04-14T01:21:44.627Z,5.30
2023-04-14T01:24:24.970Z,5.30
2023-04-14T01:26:58.220Z,5.30
2023-04-14T01:29:34.924Z,5.40
2023-04-14T01:32:06.033Z,5.30
2023-04-14T01:34:38.812Z,5.20
2023-04-14T01:37:08.221Z,5.10
2023-04-14T01:39:37.495Z,5.20
2023-04-14T01:42:07.335Z,5.30
2023-04-14T01:44:38.308Z,5.40
2023-04-14T01:47:09.291Z,5.50
2023-04-14T01:49:39.315Z,5.60
2023-04-14T01:52:08.981Z,5.70
2023-04-14T01:54:38.093Z,5.80
2023-04-14T01:57:08.062Z,5.80
2023-04-14T01:59:38.315Z,5.80
2023-04-14T02:02:09.127Z,5.90
2023-04-14T02:04:37.785Z,6.00
2023-04-14T02:07:07.322Z,6.10
2023-04-14T02:09:36.232Z,6.20
2023-04-14T02:12:05.451Z,6.30
2023-04-14T02:14:34.847Z,6.20
2023-04-14T02:17:03.570Z,6.20
2023-04-14T02:19:33.849Z,6.20
2023-04-14T02:22:03.924Z,6.20
2023-04-14T02:24:32.685Z,6.30
2023-04-14T02:27:07.011Z,6.30
2023-04-14T02:29:35.925Z,6.30
2023-04-14T02:32:05.616Z,6.30
2023-04-14T02:34:38.140Z,6.40
2023-04-14T02:37:10.319Z,6.40
2023-04-14T02:39:41.549Z,6.50
2023-04-14T02:42:14.846Z,6.50
2023-04-14T02:44:45.131Z,6.50
2023-04-14T02:47:14.705Z,6.50
2023-04-14T02:49:48.827Z,6.50
2023-04-14T02:52:21.873Z,6.60
2023-04-14T02:54:50.839Z,6.60
2023-04-14T02:57:19.464Z,6.60
2023-04-14T02:59:52.658Z,6.70
2023-04-14T03:02:21.305Z,6.70
2023-04-14T03:05:00.703Z,6.70
2023-04-14T03:07:51.925Z,6.70
2023-04-14T03:10:21.333Z,6.70
2023-04-14T03:12:49.991Z,6.70
2023-04-14T03:15:19.283Z,6.80
2023-04-14T03:17:48.154Z,6.80
2023-04-14T03:20:21.702Z,6.70
2023-04-14T03:22:50.879Z,6.50
2023-04-14T03:25:19.077Z,6.40
2023-04-14T03:27:51.870Z,6.30
2023-04-14T03:30:21.897Z,6.40
2023-04-14T03:32:50.691Z,6.40
2023-04-14T03:35:21.884Z,6.40
2023-04-14T03:37:50.652Z,6.40
2023-04-14T03:40:18.814Z,6.30
2023-04-14T03:42:50.693Z,6.30
2023-04-14T03:45:23.712Z,6.30
2023-04-14T03:47:58.155Z,6.20
2023-04-14T03:50:30.626Z,6.20
2023-04-14T03:52:59.814Z,6.20
2023-04-14T03:55:28.445Z,6.20
2023-04-14T03:57:58.295Z,6.20
2023-04-14T04:00:28.156Z,6.10
2023-04-14T04:02:57.468Z,6.10
2023-04-14T04:05:25.794Z,6.10
2023-04-14T04:07:58.740Z,6.00
2023-04-14T04:10:27.018Z,6.10
2023-04-14T04:12:56.916Z,6.00
2023-04-14T04:15:26.313Z,6.00
2023-04-14T04:17:54.870Z,6.10
2023-04-14T04:20:23.811Z,6.10
2023-04-14T04:22:52.845Z,6.10
2023-04-14T04:25:24.089Z,6.20
2023-04-14T04:28:02.076Z,6.20
2023-04-14T04:30:32.459Z,6.20
2023-04-14T04:33:02.963Z,6.20
2023-04-14T04:35:32.866Z,6.20
2023-04-14T04:38:01.880Z,6.20
2023-04-14T04:40:38.706Z,6.20
2023-04-14T04:43:12.961Z,6.20
2023-04-14T04:45:54.387Z,6.20
2023-04-14T04:48:22.648Z,6.20
2023-04-14T04:50:50.772Z,6.20
2023-04-14T04:53:19.735Z,6.30
2023-04-14T04:55:49.358Z,6.30
2023-04-14T04:58:17.982Z,6.20
2023-04-14T05:00:46.515Z,6.30
2023-04-14T05:03:15.221Z,6.30
2023-04-14T05:05:43.279Z,6.30
2023-04-14T05:08:13.135Z,6.20
2023-04-14T05:10:43.235Z,6.30
2023-04-14T05:13:13.139Z,6.30
2023-04-14T05:15:41.190Z,6.30
2023-04-14T05:18:10.979Z,6.30
2023-04-14T05:20:39.041Z,6.30
2023-04-14T05:23:07.803Z,6.30
2023-04-14T05:25:35.983Z,6.30
2023-04-14T05:28:04.627Z,6.30
2023-04-14T05:30:34.047Z,6.40
2023-04-14T05:33:02.735Z,6.40
2023-04-14T05:35:30.990Z,6.40
2023-04-14T05:37:59.350Z,6.40
2023-04-14T05:40:28.330Z,6.40
2023-04-14T05:42:57.189Z,6.40
2023-04-14T05:45:25.749Z,6.40
2023-04-14T05:47:55.174Z,6.40
2023-04-14T05:50:23.822Z,6.40
2023-04-14T05:52:52.902Z,6.30
2023-04-14T05:55:22.160Z,6.30
2023-04-14T05:57:50.454Z,6.40
2023-04-14T06:00:20.085Z,6.40
2023-04-14T06:02:48.263Z,6.30
2023-04-14T06:05:18.347Z,6.30
2023-04-14T06:07:46.998Z,6.20
2023-04-14T06:10:15.462Z,6.20
2023-04-14T06:12:43.477Z,6.20
2023-04-14T06:15:12.159Z,6.30
2023-04-14T06:17:41.021Z,6.20
2023-04-14T06:20:10.014Z,6.30
2023-04-14T06:22:40.537Z,6.30
2023-04-14T06:25:08.981Z,6.30
2023-04-14T06:27:37.063Z,6.40
2023-04-14T06:30:06.083Z,6.30
2023-04-14T06:32:35.637Z,6.40
2023-04-14T06:35:05.056Z,6.40
2023-04-14T06:37:34.500Z,6.40
2023-04-14T06:40:04.050Z,6.40
2023-04-14T06:42:32.259Z,6.50
2023-04-14T06:45:00.559Z,6.40
2023-04-14T06:47:28.643Z,6.40
2023-04-14T06:49:57.468Z,6.40
2023-04-14T06:52:25.843Z,6.40
2023-04-14T06:54:54.222Z,6.50
2023-04-14T06:57:23.718Z,6.50
2023-04-14T06:59:51.997Z,6.50
2023-04-14T07:02:20.419Z,6.50
2023-04-14T07:04:48.671Z,6.60
2023-04-14T07:07:16.793Z,6.50
2023-04-14T07:09:44.958Z,6.50
2023-04-14T07:12:13.559Z,6.60
2023-04-14T07:14:43.062Z,6.60
2023-04-14T07:17:11.234Z,6.60
2023-04-14T07:19:39.357Z,6.60
2023-04-14T07:22:09.013Z,6.60
2023-04-14T07:24:37.200Z,6.60
2023-04-14T07:27:07.283Z,6.60
2023-04-14T07:29:35.892Z,6.60
2023-04-14T07:32:05.853Z,6.60
2023-04-14T07:34:34.039Z,6.60
2023-04-14T07:37:02.178Z,6.60
2023-04-14T07:39:30.340Z,6.70
2023-04-14T07:41:58.780Z,6.70
2023-04-14T07:44:27.356Z,6.60
2023-04-14T07:46:55.406Z,6.70
2023-04-14T07:49:24.806Z,6.60
2023-04-14T07:51:52.834Z,6.70
2023-04-14T07:54:20.967Z,6.70
2023-04-14T07:56:49.122Z,6.70
2023-04-14T07:59:17.190Z,6.70
2023-04-14T08:01:45.674Z,6.70
2023-04-14T08:04:14.199Z,6.70
2023-04-14T08:06:43.675Z,6.70
2023-04-14T08:09:12.238Z,6.70
2023-04-14T08:11:40.585Z,6.70
2023-04-14T08:14:08.708Z,6.70
2023-04-14T08:16:37.244Z,7.00
2023-04-14T08:19:06.051Z,6.70
2023-04-14T08:21:34.240Z,6.80
2023-04-14T08:24:03.803Z,6.80
2023-04-14T08:26:31.835Z,6.80
2023-04-14T08:29:00.182Z,6.80
2023-04-14T08:31:28.471Z,6.80
2023-04-14T08:33:57.249Z,6.90
2023-04-14T08:36:28.103Z,6.90
2023-04-14T08:38:59.709Z,7.00
2023-04-14T08:41:35.927Z,7.00
2023-04-14T08:44:04.496Z,7.10
2023-04-14T08:46:32.873Z,7.10
2023-04-14T08:49:04.511Z,7.10
2023-04-14T08:51:33.333Z,7.10
2023-04-14T08:54:04.195Z,7.10
2023-04-14T08:56:35.323Z,7.20
2023-04-14T08:59:04.227Z,7.20
2023-04-14T09:01:36.802Z,7.20
2023-04-14T09:04:07.326Z,7.20
2023-04-14T09:06:36.443Z,7.20
2023-04-14T09:09:07.886Z,7.20
2023-04-14T09:11:41.159Z,7.20
2023-04-14T09:14:11.596Z,7.20
2023-04-14T09:16:40.577Z,7.20
2023-04-14T09:19:09.182Z,7.20
2023-04-14T09:21:53.897Z,7.20
2023-04-14T09:24:32.245Z,7.30
2023-04-14T09:27:05.158Z,7.30
2023-04-14T09:29:39.951Z,7.30
2023-04-14T09:32:09.007Z,7.30
2023-04-14T09:34:37.304Z,7.30
2023-04-14T09:37:06.846Z,7.40
2023-04-14T09:39:35.246Z,7.40
2023-04-14T09:42:05.201Z,7.50
2023-04-14T09:44:33.462Z,7.50
2023-04-14T09:47:02.199Z,7.50
2023-04-14T09:49:30.926Z,7.50
2023-04-14T09:52:03.534Z,7.60
2023-04-14T09:54:31.613Z,7.60
2023-04-14T09:56:59.776Z,7.60
2023-04-14T09:59:33.857Z,7.70
2023-04-14T10:02:05.599Z,7.60
2023-04-14T10:04:33.790Z,7.70
2023-04-14T10:07:02.246Z,7.70
2023-04-14T10:09:30.945Z,7.80
2023-04-14T10:12:09.970Z,7.90
2023-04-14T10:14:39.886Z,7.90
2023-04-14T10:17:08.139Z,8.00
2023-04-14T10:19:37.642Z,8.10
2023-04-14T10:22:06.881Z,8.10
2023-04-14T10:24:35.136Z,8.10
2023-04-14T10:27:04.046Z,8.20
2023-04-14T10:29:32.221Z,8.20
2023-04-14T10:32:05.290Z,8.20
2023-04-14T10:34:34.379Z,8.30
2023-04-14T10:37:14.951Z,8.30
2023-04-14T10:39:43.711Z,8.30
2023-04-14T10:42:14.003Z,8.30
2023-04-14T10:44:43.698Z,8.30
2023-04-14T10:47:25.087Z,8.30
2023-04-14T10:49:57.133Z,8.40
2023-04-14T10:52:34.532Z,8.40
2023-04-14T10:55:07.922Z,8.50
2023-04-14T10:57:41.990Z,8.60
2023-04-14T11:00:23.521Z,8.80
2023-04-14T11:03:00.304Z,9.10
2023-04-14T11:05:28.433Z,9.50
2023-04-14T11:08:00.132Z,9.70
2023-04-14T11:10:32.555Z,9.90
2023-04-14T11:13:04.812Z,10.00
2023-04-14T11:15:45.642Z,10.00
2023-04-14T11:18:16.250Z,10.00
2023-04-14T11:20:46.209Z,9.90
2023-04-14T11:23:16.371Z,10.00
2023-04-14T11:25:45.507Z,9.90
2023-04-14T11:28:16.094Z,9.90
2023-04-14T11:30:44.983Z,9.90
2023-04-14T11:33:15.987Z,10.00
2023-04-14T11:38:43.703Z,10.20
2023-04-14T11:41:15.350Z,10.30
2023-04-14T11:44:08.959Z,10.40
2023-04-14T11:46:39.445Z,10.40
2023-04-14T11:49:08.069Z,10.50
2023-04-14T11:51:37.621Z,10.40
2023-04-14T11:54:06.450Z,10.20
2023-04-14T11:56:37.478Z,10.10
2023-04-14T11:59:06.708Z,9.90
2023-04-14T12:01:37.667Z,9.70
2023-04-14T12:04:06.512Z,9.50
2023-04-14T12:06:39.487Z,9.30
2023-04-14T12:09:09.682Z,9.20
2023-04-14T12:11:38.565Z,9.10
2023-04-14T12:14:06.764Z,9.00
2023-04-14T12:16:35.355Z,9.00
2023-04-14T12:19:04.601Z,8.90
2023-04-14T12:21:33.550Z,8.90
2023-04-14T12:24:02.979Z,9.00
2023-04-14T12:26:32.705Z,9.10
2023-04-14T12:29:01.437Z,9.20
2023-04-14T12:31:31.171Z,9.20
2023-04-14T12:34:03.403Z,9.40
2023-04-14T12:36:48.807Z,9.60
2023-04-14T12:39:19.637Z,9.70
2023-04-14T12:41:47.966Z,9.90
2023-04-14T12:44:17.260Z,9.90
2023-04-14T12:46:47.758Z,10.00
2023-04-14T12:49:36.124Z,10.20
2023-04-14T12:52:04.875Z,10.30
2023-04-14T12:54:51.757Z,10.50
2023-04-14T12:57:22.683Z,10.50
2023-04-14T12:59:50.901Z,10.20
2023-04-14T13:02:19.871Z,10.00
2023-04-14T13:04:48.046Z,9.70
2023-04-14T13:07:16.381Z,9.50
2023-04-14T13:09:44.462Z,9.30
2023-04-14T13:12:14.734Z,9.10
2023-04-14T13:14:42.847Z,8.90
2023-04-14T13:17:11.351Z,7.90
2023-04-14T13:19:39.887Z,8.70
2023-04-14T13:22:07.981Z,8.50
2023-04-14T13:24:36.241Z,8.50
2023-04-14T13:27:04.494Z,8.50
2023-04-14T13:29:35.307Z,8.50
2023-04-14T13:32:03.443Z,8.60
2023-04-14T13:34:32.571Z,8.70
2023-04-14T13:37:00.758Z,8.80
2023-04-14T13:39:29.071Z,9.10
2023-04-14T13:41:57.631Z,9.40
2023-04-14T13:44:26.068Z,9.50
2023-04-14T13:46:56.131Z,9.70
2023-04-14T13:49:24.713Z,9.80
2023-04-14T13:51:53.546Z,9.70
2023-04-14T13:54:22.761Z,9.80
2023-04-14T13:56:51.060Z,9.80
2023-04-14T13:59:20.258Z,10.00
2023-04-14T14:01:48.561Z,10.10
2023-04-14T14:04:18.093Z,10.20
2023-04-14T14:06:47.485Z,10.30
2023-04-14T14:09:15.515Z,10.40
2023-04-14T14:11:46.754Z,10.50
2023-04-14T14:14:14.944Z,10.50
2023-04-14T14:16:43.711Z,10.50
2023-04-14T14:19:15.122Z,10.60
2023-04-14T14:21:46.291Z,10.70
2023-04-14T14:24:14.329Z,10.70
2023-04-14T14:26:42.803Z,10.70
2023-04-14T14:29:10.900Z,10.80
2023-04-14T14:31:39.100Z,10.90
2023-04-14T14:34:07.339Z,11.00
2023-04-14T14:36:35.341Z,11.10
2023-04-14T14:39:05.452Z,11.20
2023-04-14T14:41:33.559Z,11.40
2023-04-14T14:44:01.939Z,11.50
2023-04-14T14:46:30.236Z,11.50
2023-04-14T14:48:58.884Z,11.50
2023-04-14T14:51:29.926Z,11.60
2023-04-14T14:54:08.954Z,11.60
2023-04-14T14:56:39.358Z,11.60
2023-04-14T14:59:08.368Z,11.60
2023-04-14T15:01:38.598Z,11.70
2023-04-14T15:04:07.440Z,11.70
2023-04-14T15:06:36.017Z,11.80
2023-04-14T15:09:06.066Z,11.80
2023-04-14T15:11:34.124Z,11.70
2023-04-14T15:14:04.476Z,11.70
2023-04-14T15:16:32.773Z,11.60
2023-04-14T15:19:01.352Z,11.70
2023-04-14T15:21:29.468Z,11.00
2023-04-14T15:23:57.627Z,11.70
2023-04-14T15:26:26.324Z,11.80
2023-04-14T15:28:55.471Z,11.80
2023-04-14T15:31:25.056Z,11.70
2023-04-14T15:33:54.966Z,11.70
2023-04-14T15:36:23.068Z,11.70
2023-04-14T15:38:52.232Z,11.70
2023-04-14T15:41:20.449Z,11.70
2023-04-14T15:43:50.652Z,11.70
2023-04-14T15:46:19.408Z,11.60
2023-04-14T15:48:49.008Z,11.50
2023-04-14T15:51:17.083Z,11.50
2023-04-14T15:53:45.728Z,11.40
2023-04-14T15:56:14.766Z,11.40
2023-04-14T15:58:43.255Z,11.20
2023-04-14T16:01:11.399Z,11.10
2023-04-14T16:03:40.209Z,11.00
2023-04-14T16:06:09.602Z,10.70
2023-04-14T16:08:38.251Z,10.50
2023-04-14T16:11:06.497Z,10.40
2023-04-14T16:13:35.091Z,10.40
2023-04-14T16:16:03.824Z,10.40
2023-04-14T16:18:32.110Z,10.20
2023-04-14T16:21:00.794Z,10.00
2023-04-14T16:23:30.418Z,10.00
2023-04-14T16:25:58.948Z,10.10
2023-04-14T16:28:27.210Z,10.10
2023-04-14T16:30:55.554Z,10.10
2023-04-14T16:33:24.493Z,10.10
2023-04-14T16:35:52.985Z,10.10
2023-04-14T16:38:21.073Z,10.10
2023-04-14T16:40:57.501Z,10.20
2023-04-14T16:43:26.300Z,10.10
2023-04-14T16:45:54.657Z,10.10
2023-04-14T16:48:22.750Z,10.00
2023-04-14T16:50:51.618Z,9.60
2023-04-14T16:53:19.792Z,9.30
2023-04-14T16:55:48.049Z,9.00
2023-04-14T16:58:21.166Z,9.10
2023-04-14T17:00:49.197Z,9.00
2023-04-14T17:03:40.157Z,8.90
2023-04-14T17:06:30.506Z,8.60
2023-04-14T17:09:00.844Z,8.40
2023-04-14T17:11:28.963Z,8.30
2023-04-14T17:13:58.614Z,8.20
2023-04-14T17:16:27.261Z,8.20
2023-04-14T17:18:57.283Z,8.10
2023-04-14T17:21:26.457Z,8.10
2023-04-14T17:23:55.414Z,8.10
2023-04-14T17:26:25.019Z,8.20
2023-04-14T17:28:53.158Z,8.20
2023-04-14T17:31:22.772Z,8.30
2023-04-14T17:33:51.254Z,8.40
2023-04-14T17:36:19.277Z,8.50
2023-04-14T17:38:47.538Z,8.70
2023-04-14T17:41:16.107Z,8.80
2023-04-14T17:43:44.831Z,8.90
2023-04-14T17:46:13.100Z,8.90
2023-04-14T17:48:42.835Z,8.90
2023-04-14T17:51:11.820Z,8.80
2023-04-14T17:53:39.860Z,8.60
2023-04-14T17:56:08.890Z,8.20
2023-04-14T17:58:37.228Z,8.00
2023-04-14T18:01:06.108Z,7.80
2023-04-14T18:03:34.580Z,7.70
2023-04-14T18:06:04.141Z,7.60
2023-04-14T18:08:32.156Z,7.50
2023-04-14T18:11:00.928Z,7.20
2023-04-14T18:13:29.838Z,7.50
2023-04-14T18:15:58.349Z,7.40
2023-04-14T18:18:27.427Z,7.40
2023-04-14T18:20:55.633Z,7.40
2023-04-14T18:23:25.051Z,7.30
2023-04-14T18:28:30.847Z,7.30
2023-04-14T18:30:59.835Z,7.30
2023-04-14T18:33:28.109Z,7.60
2023-04-14T18:35:57.742Z,7.20
2023-04-14T18:38:29.216Z,7.10
2023-04-14T18:41:06.438Z,7.10
2023-04-14T18:43:35.263Z,7.10
2023-04-14T18:46:03.650Z,7.10
2023-04-14T18:48:32.921Z,7.20
2023-04-14T18:51:04.252Z,7.20
2023-04-14T18:53:34.515Z,7.40
2023-04-14T18:56:02.657Z,7.50
2023-04-14T18:58:31.388Z,7.70
2023-04-14T19:00:59.414Z,7.70
2023-04-14T19:03:28.723Z,7.70
2023-04-14T19:05:57.046Z,7.90
2023-04-14T19:08:25.844Z,7.90
2023-04-14T19:10:55.205Z,8.00
2023-04-14T19:13:24.083Z,8.10
2023-04-14T19:15:54.061Z,8.10
2023-04-14T19:18:29.038Z,8.20
2023-04-14T19:20:58.077Z,8.20
2023-04-14T19:23:26.082Z,8.30
2023-04-14T19:25:56.182Z,8.40
2023-04-14T19:28:24.599Z,8.40
2023-04-14T19:30:54.484Z,8.40
2023-04-14T19:33:23.446Z,8.40
2023-04-14T19:35:53.158Z,8.40
2023-04-14T19:38:29.264Z,8.30
2023-04-14T19:40:58.675Z,8.20
2023-04-14T19:43:27.270Z,8.20
2023-04-14T19:45:57.392Z,8.20
2023-04-14T19:48:25.829Z,7.90
2023-04-14T19:50:54.690Z,7.80
2023-04-14T19:53:24.071Z,7.80
2023-04-14T19:55:53.619Z,7.60
2023-04-14T19:58:24.967Z,7.50
2023-04-14T20:00:53.657Z,7.40
2023-04-14T20:03:23.542Z,7.30
2023-04-14T20:05:52.185Z,7.10
2023-04-14T20:08:22.149Z,7.00
2023-04-14T20:10:51.963Z,7.10
2023-04-14T20:13:21.131Z,7.00
2023-04-14T20:15:53.885Z,7.00
2023-04-14T20:18:22.521Z,6.80
2023-04-14T20:20:51.258Z,6.80
2023-04-14T20:23:19.623Z,6.80
2023-04-14T20:25:48.859Z,6.80
2023-04-14T20:28:19.194Z,6.80
2023-04-14T20:30:53.204Z,6.90
2023-04-14T20:33:22.385Z,7.00
2023-04-14T20:35:51.627Z,7.10
2023-04-14T20:38:20.343Z,7.20
2023-04-14T20:40:48.717Z,7.30
2023-04-14T20:43:17.004Z,7.30
2023-04-14T20:45:45.582Z,7.20
2023-04-14T20:48:15.923Z,7.30
2023-04-14T20:50:44.338Z,7.30
2023-04-14T20:53:12.690Z,7.30
2023-04-14T20:55:42.086Z,7.30
2023-04-14T20:58:11.038Z,7.30
2023-04-14T21:00:39.297Z,7.20
2023-04-14T21:03:07.752Z,7.20
2023-04-14T21:05:37.341Z,7.20
2023-04-14T21:08:05.554Z,7.10
2023-04-14T21:10:33.622Z,6.90
2023-04-14T21:15:40.049Z,6.90
2023-04-14T21:15:57.429Z,6.90
2023-04-14T21:18:25.937Z,6.80
2023-04-14T21:20:55.527Z,6.90
2023-04-14T21:23:24.114Z,6.90
2023-04-14T21:25:52.454Z,7.00
2023-04-14T21:28:20.686Z,7.10
2023-04-14T21:30:48.874Z,7.20
2023-04-14T21:33:16.899Z,7.20
2023-04-14T21:35:45.171Z,7.20
2023-04-14T21:38:14.584Z,7.30
2023-04-14T21:40:43.548Z,7.30
2023-04-14T21:43:11.962Z,7.40
2023-04-14T21:45:40.103Z,7.50
2023-04-14T21:48:08.320Z,7.50
2023-04-14T21:50:37.224Z,7.50
2023-04-14T21:53:05.336Z,7.50
2023-04-14T21:55:34.741Z,7.50
2023-04-14T21:58:03.720Z,7.50
2023-04-14T22:00:31.994Z,7.60
2023-04-14T22:03:00.505Z,7.60
2023-04-14T22:05:28.692Z,7.50
2023-04-14T22:07:57.194Z,7.40
2023-04-14T22:10:31.723Z,7.30
2023-04-14T22:13:01.609Z,7.30
2023-04-14T22:15:29.671Z,7.30
2023-04-14T22:17:58.890Z,7.30
2023-04-14T22:20:26.929Z,7.40
2023-04-14T22:22:55.450Z,7.40
2023-04-14T22:25:23.697Z,7.50
2023-04-14T22:27:51.840Z,7.50
2023-04-14T22:30:21.370Z,7.50
2023-04-14T22:32:49.583Z,7.50
2023-04-14T22:35:17.940Z,7.60
2023-04-14T22:37:46.198Z,7.70
2023-04-14T22:40:14.903Z,7.90
2023-04-14T22:42:42.901Z,7.70
2023-04-14T22:45:11.151Z,7.70
2023-04-14T22:47:40.630Z,7.60
2023-04-14T22:50:09.273Z,7.60
2023-04-14T22:52:37.534Z,7.60
2023-04-14T22:55:05.939Z,7.60
2023-04-14T22:57:34.141Z,7.60
2023-04-14T23:00:08.874Z,7.60
2023-04-14T23:02:37.366Z,7.60
2023-04-14T23:05:09.148Z,7.60
2023-04-14T23:07:37.694Z,7.60
2023-04-14T23:10:07.828Z,7.60
2023-04-14T23:12:36.818Z,7.60
2023-04-14T23:15:05.313Z,7.60
2023-04-14T23:17:33.949Z,7.60
2023-04-14T23:20:02.356Z,7.50
2023-04-14T23:22:32.905Z,7.50
2023-04-14T23:25:01.432Z,7.40
2023-04-14T23:27:31.053Z,7.50
2023-04-14T23:29:59.064Z,7.40
2023-04-14T23:32:27.555Z,7.50
2023-04-14T23:34:55.636Z,7.50
2023-04-14T23:37:23.838Z,7.50
2023-04-14T23:39:53.231Z,7.50
2023-04-14T23:42:21.589Z,7.50
2023-04-14T23:44:49.778Z,7.50
2023-04-14T23:47:18.142Z,7.50
2023-04-14T23:49:46.685Z,7.50
2023-04-14T23:52:14.719Z,7.50
2023-04-14T23:54:42.758Z,7.60
2023-04-14T23:57:12.432Z,7.60
2023-04-14T23:59:40.500Z,7.60
